createdAt,value
2022-09-12T00:00:22.960Z,101150.53
2022-09-12T00:00:44.668Z,101157.69
2022-09-12T00:01:07.987Z,101150.47
2022-09-12T00:01:31.267Z,101145.25
2022-09-12T00:01:53.091Z,101151.50
2022-09-12T00:02:14.823Z,101157.78
2022-09-12T00:02:36.431Z,101150.63
2022-09-12T00:02:58.980Z,101149.59
2022-09-12T00:03:21.618Z,101154.19
2022-09-12T00:03:43.381Z,101150.63
2022-09-12T00:04:05.495Z,101151.41
2022-09-12T00:04:28.213Z,101146.97
2022-09-12T00:04:51.153Z,101143.34
2022-09-12T00:05:13.133Z,101138.91
2022-09-12T00:05:34.904Z,101153.91
2022-09-12T00:05:56.685Z,101151.28
2022-09-12T00:06:23.102Z,101147.06
2022-09-12T00:06:46.008Z,101141.59
2022-09-12T00:07:07.653Z,101150.47
2022-09-12T00:07:29.320Z,101159.38
2022-09-12T00:07:51.237Z,101151.28
2022-09-12T00:08:13.392Z,101143.34
2022-09-12T00:08:36.198Z,101147.66
2022-09-12T00:08:59.781Z,101138.59
2022-09-12T00:09:21.909Z,101138.97
2022-09-12T00:13:41.881Z,101151.50
2022-09-12T00:16:02.189Z,101145.06
2022-09-12T00:18:08.648Z,101150.72
2022-09-12T00:18:37.910Z,101151.50
2022-09-12T00:19:00.906Z,101144.38
2022-09-12T00:19:29.615Z,101139.09
2022-09-12T00:20:03.053Z,101139.09
2022-09-12T00:20:50.872Z,101142.63
2022-09-12T00:21:25.692Z,101140.94
2022-09-12T00:21:52.316Z,101145.44
2022-09-12T00:22:18.719Z,101144.66
2022-09-12T00:22:40.394Z,101136.66
2022-09-12T00:23:02.953Z,101139.50
2022-09-12T00:23:24.751Z,101134.28
2022-09-12T00:23:46.691Z,101143.22
2022-09-12T00:24:09.210Z,101143.22
2022-09-12T00:24:31.773Z,101138.69
2022-09-12T00:24:53.367Z,101143.13
2022-09-12T00:25:14.982Z,101136.97
2022-09-12T00:25:41.629Z,101132.66
2022-09-12T00:26:05.978Z,101139.78
2022-09-12T00:26:27.604Z,101140.66
2022-09-12T00:26:49.393Z,101138.91
2022-09-12T00:27:10.995Z,101137.97
2022-09-12T00:27:32.589Z,101136.09
2022-09-12T00:27:55.136Z,101144.97
2022-09-12T00:28:17.991Z,101136.09
2022-09-12T00:28:41.234Z,101135.25
2022-09-12T00:29:02.938Z,101138.78
2022-09-12T00:29:25.514Z,101136.09
2022-09-12T00:29:47.093Z,101125.81
2022-09-12T00:30:09.251Z,101138.91
2022-09-12T00:30:31.354Z,101137.16
2022-09-12T00:30:58.041Z,101136.31
2022-09-12T00:31:30.018Z,101128.31
2022-09-12T00:31:57.698Z,101133.69
2022-09-12T00:32:21.094Z,101134.78
2022-09-12T00:32:47.016Z,101141.19
2022-09-12T00:33:10.636Z,101134.78
2022-09-12T00:33:37.901Z,101137.66
2022-09-12T00:34:00.705Z,101134.97
2022-09-12T00:34:25.666Z,101130.84
2022-09-12T00:35:45.968Z,101132.06
2022-09-12T00:36:10.164Z,101133.03
2022-09-12T00:36:31.875Z,101133.03
2022-09-12T00:36:53.477Z,101132.16
2022-09-12T00:37:16.004Z,101131.41
2022-09-12T00:37:37.576Z,101136.69
2022-09-12T00:37:59.160Z,101133.03
2022-09-12T00:38:21.220Z,101130.41
2022-09-12T00:38:45.005Z,101133.03
2022-09-12T00:39:07.593Z,101129.47
2022-09-12T00:39:29.404Z,101126.03
2022-09-12T00:39:51.134Z,101127.72
2022-09-12T00:40:12.868Z,101128.59
2022-09-12T00:40:35.426Z,101130.25
2022-09-12T00:40:57.020Z,101123.91
2022-09-12T00:41:21.410Z,101120.13
2022-09-12T00:41:44.260Z,101120.13
2022-09-12T00:42:07.174Z,101122.75
2022-09-12T00:42:28.716Z,101113.69
2022-09-12T00:42:50.314Z,101130.72
2022-09-12T00:43:14.815Z,101121.88
2022-09-12T00:43:39.675Z,101118.31
2022-09-12T00:44:04.868Z,101122.91
2022-09-12T00:44:48.095Z,101113.88
2022-09-12T00:45:21.265Z,101126.59
2022-09-12T00:45:43.852Z,101122.25
2022-09-12T00:46:18.940Z,101122.34
2022-09-12T00:46:49.073Z,101117.94
2022-09-12T00:47:29.159Z,101126.03
2022-09-12T00:48:07.693Z,101120.72
2022-09-12T00:48:42.999Z,101123.50
2022-09-12T00:49:13.127Z,101124.56
2022-09-12T00:49:54.477Z,101126.41
2022-09-12T00:50:22.546Z,101127.44
2022-09-12T00:50:46.097Z,101128.50
2022-09-12T00:51:14.178Z,101125.91
2022-09-12T00:51:40.091Z,101122.19
2022-09-12T00:52:10.004Z,101114.09
2022-09-12T00:53:35.992Z,101123.03
2022-09-12T00:54:21.130Z,101114.84
2022-09-12T00:54:56.861Z,101120.06
2022-09-12T00:55:32.439Z,101119.06
2022-09-12T00:56:10.589Z,101121.75
2022-09-12T00:56:32.810Z,101121.97
2022-09-12T00:56:58.722Z,101106.09
2022-09-12T00:57:23.732Z,101107.91
2022-09-12T00:57:51.762Z,101113.31
2022-09-12T00:58:16.889Z,101113.31
2022-09-12T00:58:43.605Z,101115.03
2022-09-12T00:59:11.939Z,101113.09
2022-09-12T00:59:39.852Z,101116.97
2022-09-12T01:00:06.361Z,101115.78
2022-09-12T01:00:28.495Z,101106.97
2022-09-12T01:00:50.239Z,101118.69
2022-09-12T01:01:14.270Z,101109.56
2022-09-12T01:01:37.018Z,101111.41
2022-09-12T01:01:58.827Z,101114.09
2022-09-12T01:02:21.419Z,101114.09
2022-09-12T01:02:44.867Z,101114.97
2022-09-12T01:03:13.016Z,101105.13
2022-09-12T01:03:34.819Z,101119.66
2022-09-12T01:03:56.445Z,101117.75
2022-09-12T01:04:20.116Z,101112.44
2022-09-12T01:04:44.353Z,101117.75
2022-09-12T01:05:07.163Z,101114.09
2022-09-12T01:05:31.616Z,101116.78
2022-09-12T01:06:02.325Z,101116.00
2022-09-12T01:06:27.675Z,101117.81
2022-09-12T01:06:50.540Z,101108.88
2022-09-12T01:07:13.132Z,101118.69
2022-09-12T01:07:39.363Z,101118.69
2022-09-12T01:08:04.351Z,101111.56
2022-09-12T01:08:28.509Z,101111.69
2022-09-12T01:08:52.595Z,101111.56
2022-09-12T01:09:17.184Z,101107.91
2022-09-12T01:09:40.821Z,101107.84
2022-09-12T01:10:02.916Z,101116.78
2022-09-12T01:10:24.936Z,101107.06
2022-09-12T01:10:47.016Z,101117.81
2022-09-12T01:11:11.118Z,101111.56
2022-09-12T01:11:37.335Z,101112.34
2022-09-12T01:12:02.307Z,101108.72
2022-09-12T01:12:24.438Z,101112.28
2022-09-12T01:12:46.519Z,101113.09
2022-09-12T01:13:09.692Z,101111.41
2022-09-12T01:13:33.288Z,101111.41
2022-09-12T01:13:55.129Z,101121.38
2022-09-12T01:14:17.949Z,101119.66
2022-09-12T01:14:40.026Z,101110.63
2022-09-12T01:15:02.573Z,101108.88
2022-09-12T01:15:24.307Z,101117.81
2022-09-12T01:15:46.575Z,101111.88
2022-09-12T01:16:08.719Z,101109.88
2022-09-12T01:16:31.994Z,101109.00
2022-09-12T01:16:54.541Z,101110.63
2022-09-12T01:17:16.764Z,101114.25
2022-09-12T01:17:51.889Z,101106.97
2022-09-12T01:18:24.707Z,101108.78
2022-09-12T01:18:58.849Z,101113.09
2022-09-12T01:19:46.228Z,101109.66
2022-09-12T01:20:36.960Z,101114.09
2022-09-12T01:21:09.796Z,101109.66
2022-09-12T01:21:42.840Z,101110.69
2022-09-12T01:22:17.452Z,101106.19
2022-09-12T01:23:02.272Z,101109.94
2022-09-12T01:24:00.051Z,101111.69
2022-09-12T01:24:48.871Z,101107.25
2022-09-12T01:25:21.488Z,101108.28
2022-09-12T01:26:00.438Z,101103.97
2022-09-12T01:27:02.749Z,101105.03
2022-09-12T01:27:47.869Z,101105.22
2022-09-12T01:28:29.332Z,101103.69
2022-09-12T01:29:14.211Z,101103.09
2022-09-12T01:29:57.738Z,101107.13
2022-09-12T01:30:31.501Z,101106.47
2022-09-12T01:31:01.230Z,101103.69
2022-09-12T01:31:28.671Z,101112.53
2022-09-12T01:31:59.073Z,101104.56
2022-09-12T01:32:29.605Z,101108.22
2022-09-12T01:33:03.797Z,101106.47
2022-09-12T01:33:35.623Z,101107.44
2022-09-12T01:34:07.908Z,101107.34
2022-09-12T01:34:37.109Z,101103.56
2022-09-12T01:35:07.087Z,101104.44
2022-09-12T01:35:35.078Z,101105.50
2022-09-12T01:36:09.553Z,101105.72
2022-09-12T01:36:48.477Z,101095.91
2022-09-12T01:37:18.589Z,101101.16
2022-09-12T01:37:48.905Z,101099.47
2022-09-12T01:38:17.399Z,101096.38
2022-09-12T01:38:48.076Z,101106.25
2022-09-12T01:39:18.799Z,101108.88
2022-09-12T01:39:45.701Z,101101.75
2022-09-12T01:40:16.523Z,101101.88
2022-09-12T01:40:45.986Z,101104.56
2022-09-12T01:41:17.187Z,101102.75
2022-09-12T01:41:52.921Z,101106.19
2022-09-12T01:42:24.988Z,101104.56
2022-09-12T01:42:56.649Z,101102.53
2022-09-12T01:43:25.041Z,101106.09
2022-09-12T01:43:54.800Z,101104.56
2022-09-12T01:44:26.416Z,101103.78
2022-09-12T01:44:54.925Z,101102.91
2022-09-12T01:45:20.487Z,101097.44
2022-09-12T01:45:47.747Z,101102.75
2022-09-12T01:46:17.315Z,101096.56
2022-09-12T01:46:45.373Z,101093.78
2022-09-12T01:47:10.164Z,101100.13
2022-09-12T01:47:39.469Z,101101.94
2022-09-12T01:48:08.978Z,101099.06
2022-09-12T01:48:44.574Z,101097.44
2022-09-12T01:49:22.460Z,101099.06
2022-09-12T01:50:15.864Z,101095.63
2022-09-12T01:50:51.141Z,101099.56
2022-09-12T01:51:26.880Z,101102.31
2022-09-12T01:52:04.713Z,101097.19
2022-09-12T01:52:58.938Z,101101.72
2022-09-12T01:53:27.612Z,101098.25
2022-09-12T01:54:01.559Z,101101.03
2022-09-12T01:54:34.477Z,101098.34
2022-09-12T01:55:15.535Z,101097.47
2022-09-12T01:55:48.753Z,101098.16
2022-09-12T01:56:28.191Z,101098.06
2022-09-12T01:57:03.437Z,101096.25
2022-09-12T01:57:40.032Z,101100.56
2022-09-12T01:58:53.896Z,101097.81
2022-09-12T01:59:21.893Z,101094.34
2022-09-12T01:59:46.860Z,101097.09
2022-09-12T02:00:11.508Z,101096.16
2022-09-12T02:00:53.384Z,101095.16
2022-09-12T02:01:20.757Z,101092.47
2022-09-12T02:01:48.043Z,101090.94
2022-09-12T02:02:15.686Z,101093.75
2022-09-12T02:02:43.056Z,101092.97
2022-09-12T02:03:10.813Z,101095.56
2022-09-12T02:03:39.537Z,101096.44
2022-09-12T02:04:08.902Z,101085.75
2022-09-12T02:04:36.810Z,101091.81
2022-09-12T02:05:04.808Z,101099.03
2022-09-12T02:05:31.295Z,101097.41
2022-09-12T02:05:58.913Z,101095.66
2022-09-12T02:06:23.794Z,101092.28
2022-09-12T02:06:49.900Z,101089.78
2022-09-12T02:07:18.185Z,101087.00
2022-09-12T02:07:46.762Z,101084.38
2022-09-12T02:08:13.003Z,101088.63
2022-09-12T02:08:40.339Z,101087.66
2022-09-12T02:09:13.636Z,101088.53
2022-09-12T02:09:44.729Z,101084.22
2022-09-12T02:10:48.113Z,101082.47
2022-09-12T02:11:30.118Z,101086.91
2022-09-12T02:12:53.881Z,101082.69
2022-09-12T02:13:31.145Z,101083.34
2022-09-12T02:14:03.333Z,101077.00
2022-09-12T02:14:41.246Z,101085.84
2022-09-12T02:15:22.195Z,101081.69
2022-09-12T02:15:52.711Z,101073.03
2022-09-12T02:16:44.811Z,101076.88
2022-09-12T02:17:13.112Z,101072.38
2022-09-12T02:17:44.180Z,101082.09
2022-09-12T02:18:07.909Z,101081.41
2022-09-12T02:18:33.560Z,101079.50
2022-09-12T02:18:59.083Z,101078.53
2022-09-12T02:19:23.615Z,101071.50
2022-09-12T02:19:51.296Z,101078.81
2022-09-12T02:20:37.400Z,101070.03
2022-09-12T02:21:01.500Z,101076.88
2022-09-12T02:21:25.872Z,101076.72
2022-09-12T02:21:52.913Z,101074.19
2022-09-12T02:22:17.756Z,101073.44
2022-09-12T02:22:41.492Z,101077.75
2022-09-12T02:23:09.198Z,101076.97
2022-09-12T02:23:33.993Z,101076.72
2022-09-12T02:23:58.739Z,101075.94
2022-09-12T02:24:23.215Z,101077.56
2022-09-12T02:24:52.697Z,101076.72
2022-09-12T02:25:17.949Z,101071.50
2022-09-12T02:25:45.648Z,101071.50
2022-09-12T02:26:14.798Z,101072.38
2022-09-12T02:26:44.063Z,101069.75
2022-09-12T02:27:10.696Z,101074.03
2022-09-12T02:27:37.728Z,101075.72
2022-09-12T02:28:04.932Z,101077.66
2022-09-12T02:28:30.888Z,101070.47
2022-09-12T02:28:52.509Z,101073.81
2022-09-12T02:29:15.393Z,101071.91
2022-09-12T02:29:37.148Z,101071.91
2022-09-12T02:29:59.118Z,101066.69
2022-09-12T02:30:22.300Z,101068.53
2022-09-12T02:30:55.049Z,101071.34
2022-09-12T02:31:24.548Z,101071.34
2022-09-12T02:31:49.614Z,101071.41
2022-09-12T02:32:17.975Z,101073.25
2022-09-12T02:32:48.304Z,101078.63
2022-09-12T02:33:21.693Z,101068.22
2022-09-12T02:33:49.832Z,101066.31
2022-09-12T02:34:21.572Z,101066.31
2022-09-12T02:34:49.435Z,101069.09
2022-09-12T02:35:18.247Z,101069.09
2022-09-12T02:35:46.679Z,101066.19
2022-09-12T02:36:15.655Z,101067.84
2022-09-12T02:36:49.881Z,101070.75
2022-09-12T02:37:23.533Z,101066.13
2022-09-12T02:37:56.069Z,101063.50
2022-09-12T02:38:24.746Z,101067.75
2022-09-12T02:38:49.168Z,101066.97
2022-09-12T02:39:10.850Z,101068.81
2022-09-12T02:39:32.696Z,101067.84
2022-09-12T02:39:55.847Z,101063.41
2022-09-12T02:40:19.251Z,101062.66
2022-09-12T02:40:41.478Z,101062.66
2022-09-12T02:41:03.609Z,101066.19
2022-09-12T02:41:25.244Z,101069.09
2022-09-12T02:41:47.477Z,101067.25
2022-09-12T02:42:10.281Z,101069.97
2022-09-12T02:42:31.922Z,101064.66
2022-09-12T02:42:53.614Z,101070.81
2022-09-12T02:43:15.215Z,101067.19
2022-09-12T02:43:38.687Z,101062.84
2022-09-12T02:44:00.463Z,101064.50
2022-09-12T02:44:24.305Z,101066.41
2022-09-12T02:44:45.960Z,101066.31
2022-09-12T02:45:10.301Z,101064.56
2022-09-12T02:45:34.347Z,101063.91
2022-09-12T02:45:56.237Z,101064.84
2022-09-12T02:46:22.664Z,101062.25
2022-09-12T02:46:51.176Z,101067.63
2022-09-12T02:47:18.256Z,101069.56
2022-09-12T02:47:44.876Z,101067.75
2022-09-12T02:48:13.340Z,101061.50
2022-09-12T02:48:41.522Z,101059.56
2022-09-12T02:49:03.680Z,101068.59
2022-09-12T02:49:25.370Z,101061.59
2022-09-12T02:49:47.323Z,101060.78
2022-09-12T02:50:10.327Z,101059.94
2022-09-12T02:50:32.238Z,101069.84
2022-09-12T02:50:54.403Z,101062.72
2022-09-12T02:51:19.275Z,101060.91
2022-09-12T02:51:45.436Z,101064.63
2022-09-12T02:52:08.130Z,101063.78
2022-09-12T02:52:29.898Z,101061.00
2022-09-12T02:52:53.775Z,101070.69
2022-09-12T02:53:15.651Z,101057.22
2022-09-12T02:53:37.598Z,101061.66
2022-09-12T02:54:00.553Z,101061.88
2022-09-12T02:54:22.318Z,101060.91
2022-09-12T02:54:44.733Z,101058.22
2022-09-12T02:55:07.871Z,101052.06
2022-09-12T02:55:31.472Z,101045.22
2022-09-12T02:55:53.582Z,101055.69
2022-09-12T02:56:22.331Z,101054.75
2022-09-12T02:56:45.700Z,101054.75
2022-09-12T02:57:21.905Z,101049.72
2022-09-12T02:57:44.315Z,101052.34
2022-09-12T02:58:08.293Z,101042.81
2022-09-12T02:58:31.832Z,101047.97
2022-09-12T02:58:58.215Z,101051.66
2022-09-12T02:59:22.989Z,101048.09
2022-09-12T02:59:45.395Z,101058.94
2022-09-12T03:00:08.680Z,101057.03
2022-09-12T03:00:36.109Z,101052.25
2022-09-12T03:01:03.644Z,101046.09
2022-09-12T03:01:36.143Z,101051.25
2022-09-12T03:02:16.359Z,101059.16
2022-09-12T03:02:54.126Z,101053.72
2022-09-12T03:03:42.691Z,101051.00
2022-09-12T03:04:24.594Z,101058.38
2022-09-12T03:05:01.051Z,101048.78
2022-09-12T03:05:26.972Z,101040.91
2022-09-12T03:05:58.303Z,101040.91
2022-09-12T03:06:28.946Z,101048.09
2022-09-12T03:07:01.489Z,101049.06
2022-09-12T03:07:37.737Z,101043.75
2022-09-12T03:08:13.978Z,101042.13
2022-09-12T03:09:01.332Z,101045.78
2022-09-12T03:09:33.147Z,101044.75
2022-09-12T03:10:02.212Z,101043.75
2022-09-12T03:10:32.937Z,101037.78
2022-09-12T03:11:16.423Z,101049.06
2022-09-12T03:11:56.057Z,101049.06
2022-09-12T03:12:29.750Z,101042.59
2022-09-12T03:13:04.677Z,101039.84
2022-09-12T03:13:33.338Z,101050.59
2022-09-12T03:14:06.309Z,101042.59
2022-09-12T03:14:43.803Z,101044.34
2022-09-12T03:15:19.497Z,101046.28
2022-09-12T03:15:49.122Z,101046.28
2022-09-12T03:16:20.324Z,101054.16
2022-09-12T03:16:46.987Z,101043.19
2022-09-12T03:17:23.038Z,101042.53
2022-09-12T03:17:56.912Z,101049.06
2022-09-12T03:18:30.812Z,101042.72
2022-09-12T03:19:04.003Z,101045.41
2022-09-12T03:19:34.124Z,101047.97
2022-09-12T03:20:01.062Z,101049.06
2022-09-12T03:20:39.943Z,101051.75
2022-09-12T03:21:05.727Z,101050.88
2022-09-12T03:21:33.396Z,101051.66
2022-09-12T03:22:04.220Z,101045.28
2022-09-12T03:22:34.501Z,101050.59
2022-09-12T03:22:58.702Z,101046.94
2022-09-12T03:23:29.225Z,101054.34
2022-09-12T03:24:02.709Z,101047.91
2022-09-12T03:24:32.924Z,101042.81
2022-09-12T03:25:03.123Z,101053.38
2022-09-12T03:25:30.878Z,101050.59
2022-09-12T03:25:59.056Z,101049.63
2022-09-12T03:26:30.203Z,101054.34
2022-09-12T03:26:56.615Z,101051.75
2022-09-12T03:27:25.230Z,101051.66
2022-09-12T03:27:54.579Z,101053.38
2022-09-12T03:28:18.338Z,101048.84
2022-09-12T03:28:42.397Z,101054.50
2022-09-12T03:29:07.970Z,101050.88
2022-09-12T03:29:30.837Z,101050.97
2022-09-12T03:29:53.759Z,101047.44
2022-09-12T03:30:15.485Z,101052.91
2022-09-12T03:30:42.225Z,101047.44
2022-09-12T03:31:13.543Z,101053.75
2022-09-12T03:31:35.113Z,101048.47
2022-09-12T03:31:59.632Z,101053.75
2022-09-12T03:32:40.369Z,101048.38
2022-09-12T03:33:01.928Z,101051.25
2022-09-12T03:33:25.762Z,101055.50
2022-09-12T03:33:48.383Z,101047.50
2022-09-12T03:34:13.016Z,101052.97
2022-09-12T03:34:34.826Z,101057.75
2022-09-12T03:34:56.407Z,101055.00
2022-09-12T03:35:23.010Z,101054.22
2022-09-12T03:35:46.923Z,101041.97
2022-09-12T03:36:16.922Z,101056.81
2022-09-12T03:36:39.670Z,101048.75
2022-09-12T03:37:01.572Z,101049.63
2022-09-12T03:37:23.147Z,101050.47
2022-09-12T03:37:45.014Z,101047.00
2022-09-12T03:38:08.018Z,101054.03
2022-09-12T03:38:29.596Z,101055.94
2022-09-12T03:38:51.206Z,101057.84
2022-09-12T03:39:13.159Z,101053.53
2022-09-12T03:39:34.761Z,101058.13
2022-09-12T03:39:57.301Z,101058.03
2022-09-12T03:40:19.313Z,101059.00
2022-09-12T03:40:40.927Z,101057.38
2022-09-12T03:41:02.495Z,101053.81
2022-09-12T03:41:25.196Z,101056.56
2022-09-12T03:41:46.904Z,101056.66
2022-09-12T03:42:08.584Z,101055.78
2022-09-12T03:42:30.190Z,101049.38
2022-09-12T03:43:03.829Z,101052.94
2022-09-12T03:43:35.544Z,101054.69
2022-09-12T03:44:09.103Z,101055.53
2022-09-12T03:44:34.930Z,101058.31
2022-09-12T03:45:01.036Z,101060.06
2022-09-12T03:45:29.140Z,101052.06
2022-09-12T03:45:54.146Z,101056.56
2022-09-12T03:46:41.398Z,101050.25
2022-09-12T03:47:10.990Z,101055.72
2022-09-12T03:47:52.779Z,101053.97
2022-09-12T03:48:17.194Z,101060.13
2022-09-12T03:48:57.818Z,101058.31
2022-09-12T03:49:29.417Z,101060.13
2022-09-12T03:49:59.418Z,101060.94
2022-09-12T03:51:19.025Z,101060.94
2022-09-12T03:51:43.244Z,101057.25
2022-09-12T03:52:15.506Z,101047.56
2022-09-12T03:52:51.351Z,101053.97
2022-09-12T03:53:18.489Z,101055.78
2022-09-12T03:53:49.464Z,101056.75
2022-09-12T03:54:15.454Z,101048.00
2022-09-12T03:54:42.050Z,101048.75
2022-09-12T03:55:16.980Z,101057.69
2022-09-12T03:55:47.990Z,101054.13
2022-09-12T03:56:21.789Z,101050.50
2022-09-12T03:56:57.227Z,101055.78
2022-09-12T03:57:38.014Z,101048.75
2022-09-12T03:58:05.444Z,101049.53
2022-09-12T03:58:36.815Z,101054.03
2022-09-12T03:59:09.156Z,101054.03
2022-09-12T03:59:34.065Z,101044.44
2022-09-12T03:59:59.033Z,101051.03
2022-09-12T04:00:27.826Z,101048.06
2022-09-12T04:00:55.186Z,101052.50
2022-09-12T04:01:22.892Z,101054.22
2022-09-12T04:01:47.891Z,101053.25
2022-09-12T04:02:44.508Z,101053.47
2022-09-12T04:03:10.534Z,101049.22
2022-09-12T04:03:33.620Z,101046.34
2022-09-12T04:03:55.143Z,101050.84
2022-09-12T04:04:17.689Z,101049.97
2022-09-12T04:04:42.565Z,101047.41
2022-09-12T04:05:05.749Z,101051.13
2022-09-12T04:05:27.648Z,101042.84
2022-09-12T04:05:50.221Z,101044.72
2022-09-12T04:06:14.518Z,101043.72
2022-09-12T04:06:36.139Z,101043.84
2022-09-12T04:06:57.700Z,101041.91
2022-09-12T04:07:19.337Z,101042.78
2022-09-12T04:07:41.839Z,101039.22
2022-09-12T04:08:03.407Z,101044.44
2022-09-12T04:08:26.586Z,101039.22
2022-09-12T04:08:50.422Z,101047.88
2022-09-12T04:09:12.948Z,101050.50
2022-09-12T04:09:34.628Z,101046.94
2022-09-12T04:09:56.348Z,101048.84
2022-09-12T04:10:17.970Z,101048.84
2022-09-12T04:10:40.456Z,101042.63
2022-09-12T04:11:06.028Z,101046.13
2022-09-12T04:11:27.640Z,101046.13
2022-09-12T04:11:49.214Z,101051.53
2022-09-12T04:12:12.580Z,101041.75
2022-09-12T04:12:35.491Z,101044.53
2022-09-12T04:12:57.092Z,101053.38
2022-09-12T04:13:18.655Z,101048.00
2022-09-12T04:13:42.872Z,101049.81
2022-09-12T04:14:04.464Z,101043.44
2022-09-12T04:14:26.000Z,101042.63
2022-09-12T04:14:47.934Z,101043.38
2022-09-12T04:15:11.409Z,101045.09
2022-09-12T04:15:32.990Z,101043.13
2022-09-12T04:15:58.393Z,101032.44
2022-09-12T04:16:20.170Z,101039.50
2022-09-12T04:16:42.771Z,101038.53
2022-09-12T04:17:04.586Z,101039.41
2022-09-12T04:17:26.183Z,101038.53
2022-09-12T04:17:47.742Z,101041.13
2022-09-12T04:18:11.629Z,101039.22
2022-09-12T04:18:33.984Z,101039.13
2022-09-12T04:18:55.562Z,101043.56
2022-09-12T04:19:17.125Z,101041.81
2022-09-12T04:19:39.672Z,101041.81
2022-09-12T04:20:01.824Z,101043.66
2022-09-12T04:20:23.411Z,101040.09
2022-09-12T04:20:44.980Z,101035.72
2022-09-12T04:21:09.560Z,101043.72
2022-09-12T04:21:31.248Z,101039.28
2022-09-12T04:21:52.894Z,101036.53
2022-09-12T04:22:14.819Z,101040.94
2022-09-12T04:22:37.407Z,101041.91
2022-09-12T04:22:58.949Z,101040.94
2022-09-12T04:23:20.735Z,101039.22
2022-09-12T04:23:42.310Z,101041.03
2022-09-12T04:24:04.122Z,101038.53
2022-09-12T04:24:26.692Z,101035.22
2022-09-12T04:24:48.216Z,101046.06
2022-09-12T04:25:10.334Z,101036.97
2022-09-12T04:25:32.076Z,101047.72
2022-09-12T04:25:54.735Z,101042.41
2022-09-12T04:26:18.373Z,101046.84
2022-09-12T04:26:39.939Z,101039.66
2022-09-12T04:27:05.948Z,101033.47
2022-09-12T04:27:29.301Z,101030.72
2022-09-12T04:27:51.820Z,101030.59
2022-09-12T04:28:13.353Z,101028.03
2022-09-12T04:28:36.165Z,101028.91
2022-09-12T04:28:59.305Z,101031.59
2022-09-12T04:29:22.373Z,101033.28
2022-09-12T04:29:43.949Z,101029.59
2022-09-12T04:30:06.960Z,101021.78
2022-09-12T04:30:29.617Z,101035.06
2022-09-12T04:30:51.987Z,101033.28
2022-09-12T04:31:17.673Z,101036.81
2022-09-12T04:31:39.405Z,101032.53
2022-09-12T04:32:02.441Z,101033.56
2022-09-12T04:32:23.996Z,101031.00
2022-09-12T04:32:45.609Z,101032.03
2022-09-12T04:33:08.241Z,101022.13
2022-09-12T04:33:32.281Z,101031.94
2022-09-12T04:33:54.808Z,101031.00
2022-09-12T04:34:16.405Z,101030.00
2022-09-12T04:34:38.013Z,101030.00
2022-09-12T04:35:02.139Z,101026.47
2022-09-12T04:35:23.692Z,101026.56
2022-09-12T04:35:45.387Z,101027.31
2022-09-12T04:36:09.650Z,101030.72
2022-09-12T04:36:33.432Z,101025.22
2022-09-12T04:36:54.968Z,101029.84
2022-09-12T04:37:16.839Z,101019.09
2022-09-12T04:37:38.426Z,101026.47
2022-09-12T04:38:00.043Z,101023.59
2022-09-12T04:38:22.639Z,101030.78
2022-09-12T04:38:45.194Z,101023.59
2022-09-12T04:39:07.628Z,101024.47
2022-09-12T04:39:29.210Z,101021.78
2022-09-12T04:39:55.943Z,101022.72
2022-09-12T04:40:18.732Z,101036.44
2022-09-12T04:40:40.429Z,101029.41
2022-09-12T04:41:09.680Z,101028.31
2022-09-12T04:41:33.949Z,101023.88
2022-09-12T04:41:55.515Z,101025.63
2022-09-12T04:42:17.643Z,101020.22
2022-09-12T04:42:39.212Z,101029.25
2022-09-12T04:43:02.099Z,101028.31
2022-09-12T04:43:23.884Z,101022.22
2022-09-12T04:43:46.748Z,101029.53
2022-09-12T04:44:12.012Z,101031.25
2022-09-12T04:44:34.591Z,101023.28
2022-09-12T04:44:56.178Z,101037.47
2022-09-12T04:45:17.973Z,101026.72
2022-09-12T04:45:39.643Z,101028.66
2022-09-12T04:46:06.438Z,101030.47
2022-09-12T04:46:29.645Z,101034.78
2022-09-12T04:46:51.471Z,101028.66
2022-09-12T04:47:14.028Z,101019.81
2022-09-12T04:47:35.869Z,101026.25
2022-09-12T04:47:57.448Z,101026.72
2022-09-12T04:48:19.017Z,101030.13
2022-09-12T04:48:42.741Z,101021.19
2022-09-12T04:49:06.008Z,101019.25
2022-09-12T04:49:27.613Z,101028.09
2022-09-12T04:49:49.751Z,101023.69
2022-09-12T04:50:11.358Z,101025.63
2022-09-12T04:50:33.970Z,101024.63
2022-09-12T04:50:55.521Z,101015.72
2022-09-12T04:51:20.871Z,101027.44
2022-09-12T04:51:44.109Z,101016.94
2022-09-12T04:52:05.717Z,101021.34
2022-09-12T04:52:27.232Z,101024.03
2022-09-12T04:52:49.766Z,101017.81
2022-09-12T04:53:12.252Z,101014.25
2022-09-12T04:53:33.913Z,101022.13
2022-09-12T04:53:58.373Z,101016.75
2022-09-12T04:54:20.553Z,101022.91
2022-09-12T04:54:43.062Z,101020.22
2022-09-12T04:55:05.490Z,101015.81
2022-09-12T04:55:27.087Z,101023.88
2022-09-12T04:55:48.717Z,101022.06
2022-09-12T04:56:12.757Z,101016.56
2022-09-12T04:56:38.042Z,101017.53
2022-09-12T04:56:59.892Z,101021.94
2022-09-12T04:57:22.377Z,101019.25
2022-09-12T04:57:43.964Z,101021.00
2022-09-12T04:58:05.536Z,101020.03
2022-09-12T04:58:27.152Z,101018.41
2022-09-12T04:58:49.612Z,101018.31
2022-09-12T04:59:13.560Z,101013.88
2022-09-12T04:59:35.688Z,101018.31
2022-09-12T04:59:57.381Z,101018.22
2022-09-12T05:00:19.403Z,101018.41
2022-09-12T05:00:42.237Z,101016.69
2022-09-12T05:01:06.153Z,101016.56
2022-09-12T05:01:29.964Z,101014.94
2022-09-12T05:01:51.766Z,101014.00
2022-09-12T05:02:14.359Z,101017.72
2022-09-12T05:02:36.000Z,101013.28
2022-09-12T05:02:57.681Z,101017.72
2022-09-12T05:03:19.231Z,101017.72
2022-09-12T05:03:44.722Z,101013.28
2022-09-12T05:04:06.327Z,101019.63
2022-09-12T05:04:28.034Z,101015.97
2022-09-12T05:04:50.572Z,101007.06
2022-09-12T05:05:12.348Z,101012.53
2022-09-12T05:05:33.899Z,101003.50
2022-09-12T05:05:56.552Z,101017.72
2022-09-12T05:06:20.178Z,101010.59
2022-09-12T05:06:43.326Z,101009.63
2022-09-12T05:07:05.748Z,101008.69
2022-09-12T05:07:27.304Z,101012.34
2022-09-12T05:07:49.096Z,101003.41
2022-09-12T05:08:11.609Z,101002.53
2022-09-12T05:08:34.037Z,101000.22
2022-09-12T05:08:58.379Z,101005.31
2022-09-12T05:09:21.107Z,101002.63
2022-09-12T05:09:42.710Z,101005.22
2022-09-12T05:10:04.792Z,101004.38
2022-09-12T05:10:26.663Z,101000.97
2022-09-12T05:10:49.309Z,100995.72
2022-09-12T05:11:13.150Z,101009.03
2022-09-12T05:12:02.497Z,101000.03
2022-09-12T05:12:20.145Z,101007.31
2022-09-12T05:12:41.749Z,101007.22
2022-09-12T05:13:03.480Z,101001.09
2022-09-12T05:13:25.114Z,101009.16
2022-09-12T05:13:47.247Z,101001.94
2022-09-12T05:14:09.939Z,101009.25
2022-09-12T05:14:32.487Z,101001.94
2022-09-12T05:14:54.101Z,101004.72
2022-09-12T05:15:16.866Z,101009.25
2022-09-12T05:15:39.138Z,101010.56